createdAt,value
2018-06-28T00:00:13.390Z,100426.55
2018-06-28T00:02:52.125Z,100424.91
2018-06-28T00:05:33.966Z,100428.03
2018-06-28T00:08:13.232Z,100424.88
2018-06-28T00:10:46.339Z,100425.59
2018-06-28T00:13:22.000Z,100429.85
2018-06-28T00:15:57.089Z,100413.02
2018-06-28T00:18:30.010Z,100427.94
2018-06-28T00:21:04.058Z,100426.67
2018-06-28T00:23:39.890Z,100428.77
2018-06-28T00:26:13.982Z,100427.04
2018-06-28T00:28:46.633Z,100424.09
2018-06-28T00:31:21.674Z,100419.13
2018-06-28T00:33:56.597Z,100425.14
2018-06-28T00:36:31.059Z,100424.70
2018-06-28T00:39:05.957Z,100411.70
2018-06-28T00:41:38.832Z,100434.98
2018-06-28T00:44:12.697Z,100318.45
2018-06-28T00:46:47.355Z,100421.27
2018-06-28T00:49:27.667Z,100428.20
2018-06-28T00:52:01.517Z,100427.27
2018-06-28T00:54:39.038Z,100425.94
2018-06-28T00:57:13.988Z,100424.43
2018-06-28T00:59:46.348Z,100423.59
2018-06-28T01:02:18.531Z,100405.88
2018-06-28T01:04:51.767Z,100415.52
2018-06-28T01:07:24.927Z,100412.98
2018-06-28T01:09:57.528Z,100411.31
2018-06-28T01:12:30.930Z,100410.11
2018-06-28T01:15:06.190Z,100411.53
2018-06-28T01:17:37.963Z,100417.91
2018-06-28T01:20:09.509Z,100417.29
2018-06-28T01:22:41.390Z,100409.98
2018-06-28T01:25:13.968Z,100413.60
2018-06-28T01:27:45.285Z,100403.19
2018-06-28T01:30:16.787Z,100408.48
2018-06-28T01:32:49.306Z,100403.95
2018-06-28T01:35:22.195Z,100400.16
2018-06-28T01:38:07.659Z,100403.33
2018-06-28T01:40:39.481Z,100387.75
2018-06-28T01:43:37.535Z,100400.20
2018-06-28T01:46:08.964Z,100399.36
2018-06-28T01:48:40.919Z,100409.61
2018-06-28T01:51:13.317Z,100402.28
2018-06-28T01:53:45.047Z,100409.98
2018-06-28T01:56:16.723Z,100405.39
2018-06-28T01:58:48.119Z,100409.61
2018-06-28T02:01:20.416Z,100410.16
2018-06-28T02:03:51.921Z,100410.75
2018-06-28T02:06:23.201Z,100402.75
2018-06-28T02:08:54.945Z,100389.63
2018-06-28T02:11:26.833Z,100406.83
2018-06-28T02:13:57.980Z,100396.94
2018-06-28T02:16:29.777Z,100394.58
2018-06-28T02:19:01.244Z,100323.12
2018-06-28T02:21:32.947Z,100387.52
2018-06-28T02:24:05.682Z,100397.02
2018-06-28T02:26:37.936Z,100391.06
2018-06-28T02:29:10.331Z,100392.63
2018-06-28T02:31:41.697Z,100388.94
2018-06-28T02:34:13.917Z,100390.37
2018-06-28T02:36:45.779Z,100387.44
2018-06-28T02:39:17.133Z,100384.94
2018-06-28T02:41:48.460Z,100385.56
2018-06-28T02:44:20.275Z,100381.77
2018-06-28T02:46:51.993Z,100384.73
2018-06-28T02:49:24.028Z,100384.34
2018-06-28T02:51:55.751Z,100391.72
2018-06-28T02:54:27.136Z,100392.03
2018-06-28T02:56:58.562Z,100384.94
2018-06-28T02:59:30.256Z,100394.37
2018-06-28T03:02:01.906Z,100396.25
2018-06-28T03:04:33.358Z,100393.77
2018-06-28T03:07:08.242Z,100396.24
2018-06-28T03:09:39.840Z,100391.97
2018-06-28T03:12:11.754Z,100394.37
2018-06-28T03:14:42.306Z,100400.23
2018-06-28T03:17:14.136Z,100396.92
2018-06-28T03:19:45.539Z,100395.69
2018-06-28T03:22:17.484Z,100396.53
2018-06-28T03:24:48.891Z,100394.11
2018-06-28T03:27:20.657Z,100389.08
2018-06-28T03:29:52.009Z,100396.55
2018-06-28T03:32:23.350Z,100393.55
2018-06-28T03:34:55.396Z,100392.08
2018-06-28T03:37:26.847Z,100389.82
2018-06-28T03:39:58.571Z,100394.22
2018-06-28T03:42:30.023Z,100394.20
2018-06-28T03:45:01.376Z,100398.52
2018-06-28T03:47:35.242Z,100397.30
2018-06-28T03:50:06.691Z,100395.69
2018-06-28T03:52:38.070Z,100389.91
2018-06-28T03:55:09.379Z,100392.84
2018-06-28T03:57:40.868Z,100390.45
2018-06-28T04:00:14.676Z,100396.70
2018-06-28T04:06:31.889Z,100387.64
2018-06-28T04:09:06.421Z,100389.11
2018-06-28T04:11:38.709Z,100394.23
2018-06-28T04:14:10.987Z,100395.78
2018-06-28T04:16:42.520Z,100366.85
2018-06-28T04:19:14.995Z,100388.45
2018-06-28T04:21:47.000Z,100393.31
2018-06-28T04:24:21.114Z,100395.94
2018-06-28T04:26:52.744Z,100395.15
2018-06-28T04:29:24.117Z,100399.25
2018-06-28T04:31:57.773Z,100396.70
2018-06-28T04:34:30.642Z,100402.25
2018-06-28T04:37:03.253Z,100410.40
2018-06-28T04:39:40.080Z,100408.14
2018-06-28T04:42:17.364Z,100404.55
2018-06-28T04:44:51.709Z,100410.73
2018-06-28T04:47:23.406Z,100404.14
2018-06-28T04:50:01.538Z,100399.87
2018-06-28T04:52:33.587Z,100407.58
2018-06-28T04:55:05.143Z,100399.65
2018-06-28T04:57:37.046Z,100391.61
2018-06-28T05:00:08.631Z,100399.67
2018-06-28T05:02:41.060Z,100388.17
2018-06-28T05:05:12.927Z,100388.80
2018-06-28T05:07:44.766Z,100389.11
2018-06-28T05:10:16.908Z,100400.41
2018-06-28T05:12:49.401Z,100389.69
2018-06-28T05:15:20.764Z,100391.61
2018-06-28T05:17:52.109Z,100391.31
2018-06-28T05:20:24.646Z,100383.37
2018-06-28T05:22:56.788Z,100381.21
2018-06-28T05:25:29.027Z,100385.87
2018-06-28T05:28:01.121Z,100396.10
2018-06-28T05:30:33.067Z,100400.16
2018-06-28T05:33:05.802Z,100397.13
2018-06-28T05:35:37.211Z,100389.40
2018-06-28T05:38:09.313Z,100397.78
2018-06-28T05:40:40.774Z,100388.27
2018-06-28T05:43:12.659Z,100390.02
2018-06-28T05:45:47.222Z,100378.83
2018-06-28T05:48:20.486Z,100383.23
2018-06-28T05:51:23.397Z,100375.77
2018-06-28T05:53:54.758Z,100389.52
2018-06-28T05:56:33.667Z,100374.41
2018-06-28T05:59:07.253Z,100383.50
2018-06-28T06:01:39.380Z,100389.83
2018-06-28T06:04:11.712Z,100390.88
2018-06-28T06:06:47.779Z,100384.03
2018-06-28T06:09:31.970Z,100384.31
2018-06-28T06:15:42.318Z,100396.13
2018-06-28T06:18:14.818Z,100395.02
2018-06-28T06:20:47.289Z,100396.14
2018-06-28T06:23:19.875Z,100401.55
2018-06-28T06:25:57.062Z,100401.45
2018-06-28T06:28:32.621Z,100404.98
2018-06-28T06:31:08.317Z,100393.14
2018-06-28T06:33:42.487Z,100397.28
2018-06-28T06:36:17.755Z,100397.26
2018-06-28T06:38:49.609Z,100391.77
2018-06-28T06:41:21.278Z,100394.45
2018-06-28T06:43:56.054Z,100405.29
2018-06-28T06:46:30.290Z,100403.50
2018-06-28T06:51:56.305Z,100397.13
2018-06-28T06:54:33.035Z,100400.47
2018-06-28T06:57:08.607Z,100399.95
2018-06-28T06:59:44.680Z,100392.77
2018-06-28T07:02:18.335Z,100390.96
2018-06-28T07:04:58.840Z,100389.70
2018-06-28T07:07:35.208Z,100385.27
2018-06-28T07:10:14.634Z,100385.59
2018-06-28T07:12:47.838Z,100383.95
2018-06-28T07:15:24.988Z,100379.39
2018-06-28T07:17:59.063Z,100374.03
2018-06-28T07:20:33.262Z,100376.75
2018-06-28T07:23:14.631Z,100380.18
2018-06-28T07:25:48.980Z,100379.73
2018-06-28T07:31:05.394Z,100376.20
2018-06-28T07:33:39.326Z,100383.02
2018-06-28T07:36:11.511Z,100375.23
2018-06-28T07:38:44.840Z,100381.73
2018-06-28T07:41:21.789Z,100373.80
2018-06-28T07:46:39.515Z,100372.32
2018-06-28T07:49:14.711Z,100371.59
2018-06-28T07:51:54.587Z,100364.41
2018-06-28T07:54:27.626Z,100367.56
2018-06-28T07:57:03.520Z,100365.15
2018-06-28T07:59:42.550Z,100355.00
2018-06-28T08:02:17.730Z,100356.20
2018-06-28T08:04:57.839Z,100370.36
2018-06-28T08:07:35.021Z,100360.16
2018-06-28T08:10:08.616Z,100349.84
2018-06-28T08:12:40.466Z,100342.83
2018-06-28T08:15:15.134Z,100359.13
2018-06-28T08:17:49.802Z,100340.73
2018-06-28T08:20:29.643Z,100346.92
2018-06-28T08:23:02.982Z,100360.96
2018-06-28T08:25:36.668Z,100362.78
2018-06-28T08:28:17.118Z,100354.22
2018-06-28T08:30:52.510Z,100350.89
2018-06-28T08:33:28.055Z,100351.39
2018-06-28T08:36:02.903Z,100365.87
2018-06-28T08:38:35.914Z,100357.71
2018-06-28T08:41:20.329Z,100285.22
2018-06-28T08:44:02.176Z,100352.75
2018-06-28T08:46:35.400Z,100352.83
2018-06-28T08:49:22.843Z,100349.25
2018-06-28T08:51:59.219Z,100340.39
2018-06-28T08:54:38.612Z,100340.17
2018-06-28T08:57:17.380Z,100348.35
2018-06-28T08:59:53.559Z,100345.56
2018-06-28T09:02:27.726Z,100353.30
2018-06-28T09:05:07.473Z,100345.56
2018-06-28T09:07:43.575Z,100343.80
2018-06-28T09:10:16.465Z,100329.95
2018-06-28T09:12:51.057Z,100336.34
2018-06-28T09:15:23.843Z,100335.05
2018-06-28T09:18:19.372Z,100326.13
2018-06-28T09:21:04.790Z,100331.84
2018-06-28T09:23:47.113Z,100336.19
2018-06-28T09:26:23.632Z,100325.98
2018-06-28T09:28:58.625Z,100331.07
2018-06-28T09:37:58.189Z,100313.86
2018-06-28T09:40:44.419Z,100317.30
2018-06-28T09:43:27.718Z,100315.43
2018-06-28T09:48:53.978Z,100296.06
2018-06-28T09:51:31.374Z,100301.86
2018-06-28T09:54:09.250Z,100300.18
2018-06-28T10:08:10.805Z,100291.80
2018-06-28T10:13:43.855Z,100277.39
2018-06-28T10:16:37.652Z,100285.91
2018-06-28T10:19:22.038Z,100282.53
2018-06-28T10:22:07.425Z,100265.31
2018-06-28T10:27:53.467Z,100272.32
2018-06-28T10:33:53.583Z,100266.51
2018-06-28T10:36:39.840Z,100255.34
2018-06-28T10:45:41.271Z,100253.58
2018-06-28T10:48:28.424Z,100242.94
2018-06-28T10:51:15.046Z,100231.31
2018-06-28T10:54:00.908Z,100193.22
2018-06-28T10:56:40.123Z,100232.51
2018-06-28T11:02:14.363Z,100217.09
2018-06-28T11:05:02.840Z,100235.62
2018-06-28T13:18:44.497Z,100084.52
2018-06-28T13:21:17.063Z,100083.28
2018-06-28T13:23:59.254Z,100088.81
2018-06-28T13:29:05.355Z,100080.41
2018-06-28T13:31:37.569Z,100084.45
2018-06-28T13:34:09.645Z,100074.94
2018-06-28T13:36:42.934Z,100068.05
2018-06-28T13:39:16.825Z,100070.81
2018-06-28T13:41:49.594Z,100057.75
2018-06-28T13:44:25.416Z,100064.33
2018-06-28T13:46:59.769Z,100063.68
2018-06-28T13:49:34.216Z,100056.45
2018-06-28T13:52:19.138Z,100048.98
2018-06-28T13:54:55.876Z,100059.30
2018-06-28T14:00:14.784Z,100063.45
2018-06-28T14:02:48.669Z,100060.91
2018-06-28T14:05:24.538Z,100050.73
2018-06-28T14:08:02.743Z,100041.49
2018-06-28T14:10:38.615Z,100045.02
2018-06-28T14:13:12.693Z,100030.89
2018-06-28T14:16:16.307Z,100028.48
2018-06-28T14:18:54.755Z,100030.84
2018-06-28T14:21:29.041Z,100021.16
2018-06-28T14:24:02.776Z,100026.48
2018-06-28T14:26:36.222Z,100026.32
2018-06-28T14:29:12.085Z,100022.64
2018-06-28T14:31:49.135Z,100025.08
2018-06-28T14:34:22.430Z,100030.87
2018-06-28T14:36:54.924Z,100023.51
2018-06-28T14:39:28.440Z,100024.80
2018-06-28T14:42:02.448Z,100011.36
2018-06-28T14:44:35.347Z,100014.81
2018-06-28T14:47:07.020Z,100014.12
2018-06-28T14:49:43.241Z,100012.02
2018-06-28T14:52:16.253Z,100008.23
2018-06-28T14:54:47.936Z,99985.04
2018-06-28T14:57:23.230Z,100003.63
2018-06-28T15:00:00.838Z,100000.91
2018-06-28T15:02:41.179Z,100001.02
2018-06-28T15:05:15.373Z,99996.10
2018-06-28T15:07:52.568Z,99989.90
2018-06-28T15:10:26.677Z,99996.30
2018-06-28T15:12:59.389Z,99992.83
2018-06-28T15:15:36.527Z,99986.55
2018-06-28T15:18:09.662Z,99988.41
2018-06-28T15:20:41.267Z,99984.22
2018-06-28T15:23:16.579Z,99986.06
2018-06-28T15:25:48.720Z,99989.09
2018-06-28T15:28:21.536Z,99988.56
2018-06-28T15:30:54.100Z,99992.91
2018-06-28T15:33:26.561Z,99982.98
2018-06-28T15:36:20.215Z,99975.39
2018-06-28T15:38:54.063Z,99980.51
2018-06-28T15:41:25.568Z,99984.23
2018-06-28T15:44:06.829Z,99976.00
2018-06-28T15:46:38.939Z,99977.64
2018-06-28T15:49:13.997Z,99972.41
2018-06-28T15:51:49.309Z,99966.30
2018-06-28T15:54:23.405Z,99962.28
2018-06-28T15:56:59.793Z,99962.28
2018-06-28T15:59:47.624Z,99964.44
2018-06-28T16:02:35.392Z,99935.30
2018-06-28T16:05:10.172Z,99969.96
2018-06-28T16:07:48.966Z,99964.58
2018-06-28T16:10:22.181Z,99962.22
2018-06-28T16:12:57.053Z,99957.19
2018-06-28T16:15:30.417Z,99947.22
2018-06-28T16:18:06.093Z,99950.28
2018-06-28T16:20:39.937Z,99953.69
2018-06-28T16:23:25.697Z,99957.47
2018-06-28T16:25:59.988Z,99943.47
2018-06-28T16:28:32.456Z,99963.72
2018-06-28T16:31:06.875Z,99954.05
2018-06-28T16:33:42.442Z,99949.15
2018-06-28T16:36:14.913Z,99956.53
2018-06-28T16:38:48.529Z,99954.84
2018-06-28T16:41:22.085Z,99987.44
2018-06-28T16:43:57.862Z,99950.05
2018-06-28T16:46:34.423Z,99952.16
2018-06-28T16:49:08.540Z,99955.92
2018-06-28T16:51:43.107Z,99952.98
2018-06-28T16:54:18.024Z,99949.19
2018-06-28T16:59:41.558Z,99943.62
2018-06-28T17:02:15.461Z,99945.91
2018-06-28T17:04:48.921Z,99949.74
2018-06-28T17:07:23.486Z,99947.97
2018-06-28T17:09:58.602Z,99946.78
2018-06-28T17:12:32.960Z,99943.28
2018-06-28T17:15:09.465Z,99936.55
2018-06-28T17:17:42.443Z,99941.84
2018-06-28T17:20:16.282Z,99936.12
2018-06-28T17:22:53.750Z,99928.70
2018-06-28T17:25:25.556Z,99941.48
2018-06-28T17:28:01.845Z,99940.94
2018-06-28T17:30:34.452Z,99947.37
2018-06-28T17:33:11.142Z,99946.25
2018-06-28T17:35:43.096Z,99950.84
2018-06-28T17:38:21.719Z,99956.35
2018-06-28T17:41:00.350Z,99936.29
2018-06-28T17:43:54.341Z,99932.50
2018-06-28T17:46:32.050Z,99952.64
2018-06-28T17:52:01.750Z,99952.48
2018-06-28T17:54:50.996Z,99945.28
2018-06-28T17:57:25.424Z,99944.20
2018-06-28T18:00:00.081Z,99941.52
2018-06-28T18:02:33.329Z,99932.47
2018-06-28T18:05:11.726Z,99932.20
2018-06-28T18:07:44.685Z,99939.91
2018-06-28T18:10:28.260Z,99943.13
2018-06-28T18:13:04.084Z,99949.78
2018-06-28T18:15:39.846Z,99944.82
2018-06-28T18:18:13.031Z,99939.55
2018-06-28T18:20:47.598Z,99944.05
2018-06-28T18:23:22.371Z,99947.72
2018-06-28T18:25:56.260Z,99941.54
2018-06-28T18:28:31.605Z,99939.22
2018-06-28T18:31:04.198Z,99940.77
2018-06-28T18:33:37.988Z,99942.13
2018-06-28T18:36:12.213Z,99945.14
2018-06-28T18:38:47.097Z,99926.45
2018-06-28T18:41:20.097Z,99944.75
2018-06-28T18:43:55.481Z,99945.30
2018-06-28T18:46:28.157Z,99950.41
2018-06-28T18:49:09.058Z,99946.70
2018-06-28T18:51:43.281Z,99947.46
2018-06-28T18:54:18.987Z,99948.39
2018-06-28T18:56:57.470Z,99947.87
2018-06-28T18:59:30.542Z,99949.77
2018-06-28T19:02:09.293Z,99954.16
2018-06-28T19:04:49.270Z,99949.75
2018-06-28T19:07:23.416Z,99943.83
2018-06-28T19:10:02.463Z,99952.31
2018-06-28T19:12:37.270Z,99946.63
2018-06-28T19:15:18.697Z,99953.78
2018-06-28T19:17:52.798Z,99956.94
2018-06-28T19:20:29.220Z,99959.17
2018-06-28T19:23:06.567Z,99955.28
2018-06-28T19:25:38.497Z,99958.67
2018-06-28T19:28:10.780Z,99957.30
2018-06-28T19:30:51.129Z,99949.42
2018-06-28T19:33:24.201Z,99961.14
2018-06-28T19:35:59.477Z,99964.75
2018-06-28T19:38:37.571Z,99955.24
2018-06-28T19:41:16.650Z,99968.45
2018-06-28T19:43:56.831Z,99968.77
2018-06-28T19:49:15.209Z,99974.27
2018-06-28T19:51:52.822Z,99980.66
2018-06-28T19:54:27.450Z,99977.33
2018-06-28T19:57:00.740Z,99976.54
2018-06-28T19:59:36.234Z,99981.52
2018-06-28T20:02:12.783Z,99981.32
2018-06-28T20:04:47.746Z,99988.78
2018-06-28T20:07:19.295Z,99985.45
2018-06-28T20:09:53.566Z,99993.19
2018-06-28T20:12:36.882Z,99986.09
2018-06-28T20:15:17.922Z,99987.81
2018-06-28T20:18:05.728Z,99993.95
2018-06-28T20:20:38.648Z,99997.05
2018-06-28T20:23:12.752Z,99993.47
2018-06-28T20:25:47.868Z,100004.50
2018-06-28T20:28:29.024Z,99998.51
2018-06-28T20:31:06.418Z,99999.36
2018-06-28T20:33:55.008Z,100008.95
2018-06-28T20:36:33.965Z,100003.76
2018-06-28T20:39:11.162Z,100008.09
2018-06-28T20:41:52.653Z,100003.20
2018-06-28T20:44:34.460Z,99999.97
2018-06-28T20:47:07.806Z,100008.95
2018-06-28T20:49:45.221Z,100009.53
2018-06-28T20:52:21.864Z,100015.12
2018-06-28T20:54:55.266Z,100015.95
2018-06-28T20:57:28.977Z,100021.27
2018-06-28T21:00:05.400Z,100018.77
2018-06-28T21:02:43.827Z,100019.31
2018-06-28T21:05:18.280Z,100019.38
2018-06-28T21:07:50.394Z,100016.45
2018-06-28T21:10:22.298Z,100019.78
2018-06-28T21:12:56.411Z,100025.25
2018-06-28T21:15:31.621Z,100042.56
2018-06-28T21:18:12.577Z,100033.62
2018-06-28T21:20:46.658Z,100032.41
2018-06-28T21:23:23.150Z,100034.36
2018-06-28T21:25:58.711Z,100041.33
2018-06-28T21:28:32.262Z,100036.41
2018-06-28T21:31:09.805Z,100029.64
2018-06-28T21:36:25.395Z,100007.17
2018-06-28T21:38:59.194Z,100031.59
2018-06-28T21:41:41.020Z,100043.64
2018-06-28T21:44:12.417Z,100045.27
2018-06-28T21:46:47.992Z,100046.41
2018-06-28T21:49:20.458Z,100042.01
2018-06-28T21:51:53.196Z,100026.34
2018-06-28T21:54:31.058Z,100029.94
2018-06-28T21:57:07.597Z,100029.11
2018-06-28T21:59:44.008Z,100030.70
2018-06-28T22:02:17.972Z,100038.11
2018-06-28T22:05:00.262Z,100026.14
2018-06-28T22:07:31.576Z,100022.57
2018-06-28T22:10:05.522Z,100018.68
2018-06-28T22:12:40.610Z,100024.63
2018-06-28T22:15:17.091Z,100021.30
2018-06-28T22:17:51.050Z,100022.45
2018-06-28T22:20:25.452Z,100023.75
2018-06-28T22:22:58.272Z,100027.84
2018-06-28T22:25:31.168Z,100023.91
2018-06-28T22:28:08.500Z,100020.63
2018-06-28T22:30:40.785Z,100025.47
2018-06-28T22:33:14.214Z,100021.87
2018-06-28T22:35:48.134Z,100023.72
2018-06-28T22:38:21.395Z,100028.11
2018-06-28T22:41:10.688Z,100025.41
2018-06-28T22:46:24.241Z,100024.09
2018-06-28T22:49:05.276Z,100028.28
2018-06-28T22:51:43.438Z,99993.81
2018-06-28T22:54:17.763Z,100017.38
2018-06-28T22:56:49.526Z,100014.55
2018-06-28T22:59:21.732Z,100023.77
2018-06-28T23:01:53.895Z,100017.98
2018-06-28T23:04:26.603Z,100022.61
2018-06-28T23:06:59.612Z,100012.09
2018-06-28T23:09:32.805Z,100012.39
2018-06-28T23:12:05.829Z,100017.31
2018-06-28T23:14:38.820Z,100010.10
2018-06-28T23:17:11.877Z,100023.31
2018-06-28T23:19:47.330Z,100020.05
2018-06-28T23:23:01.486Z,100007.72
2018-06-28T23:25:40.035Z,100003.09
2018-06-28T23:28:16.923Z,100001.23
2018-06-28T23:30:50.879Z,99999.66
2018-06-28T23:33:24.602Z,99998.09
2018-06-28T23:35:57.125Z,99993.15
2018-06-28T23:38:31.091Z,99993.14
2018-06-28T23:41:08.924Z,99992.39
2018-06-28T23:43:43.732Z,99989.72
2018-06-28T23:46:16.004Z,99990.83
2018-06-28T23:48:51.230Z,99979.93
2018-06-28T23:51:23.574Z,99979.67
2018-06-28T23:53:56.961Z,99984.91
2018-06-28T23:56:27.934Z,99977.83
2018-06-28T23:59:01.805Z,99990.41
